Lake Quivira, Kansas
Current Conditions -  °F | °C
As of 9:53 AM on Saturday 20 Dec 2014 (Local Time) from KOJC Reporting Station
Scattered Clouds Scattered Clouds  
Wind Chill: 28°   Ceiling: Unl
Heat Index: 36°   Visibility: 7mi
Dew Point: 33°   Wind: 12mph
Humidity: 89%   Direction: 190°S
Pressure: 30.18"   Gusts: NA
Location:  39.0067°N, 94.7872°W
Report Text: KOJC 201553Z 19010KT 7SM SCT009 02/01 A3018 RMK AO2 SLP226 T00220006
Loading
Personal Weather Stations






























Interactive Weather Map New forecast layout! Learn more

10-Day Weather Forecast

Advertisements
Track Severe Weather on mobile